sensor_id;sensor_type;location;lat;lon;timestamp;temperature;humidity
73112;HTU21D;61301;51.956;5.876;2023-08-24T00:00:59;24.83;47.48
73112;HTU21D;61301;51.956;5.876;2023-08-24T00:03:25;24.82;47.45
73112;HTU21D;61301;51.956;5.876;2023-08-24T00:05:51;24.77;47.59
73112;HTU21D;61301;51.956;5.876;2023-08-24T00:08:17;24.76;47.87
73112;HTU21D;61301;51.956;5.876;2023-08-24T00:10:44;24.70;48.37
73112;HTU21D;61301;51.956;5.876;2023-08-24T00:13:14;24.61;48.31
73112;HTU21D;61301;51.956;5.876;2023-08-24T00:15:40;24.57;48.63
73112;HTU21D;61301;51.956;5.876;2023-08-24T00:18:06;24.51;48.73
73112;HTU21D;61301;51.956;5.876;2023-08-24T00:20:33;24.49;48.70
73112;HTU21D;61301;51.956;5.876;2023-08-24T00:22:59;24.49;48.55
73112;HTU21D;61301;51.956;5.876;2023-08-24T00:25:26;24.46;48.75
73112;HTU21D;61301;51.956;5.876;2023-08-24T00:27:55;24.47;48.62
73112;HTU21D;61301;51.956;5.876;2023-08-24T00:30:22;24.46;48.72
73112;HTU21D;61301;51.956;5.876;2023-08-24T00:32:49;24.44;48.95
73112;HTU21D;61301;51.956;5.876;2023-08-24T00:35:16;24.39;48.97
73112;HTU21D;61301;51.956;5.876;2023-08-24T00:37:42;24.36;49.48
73112;HTU21D;61301;51.956;5.876;2023-08-24T00:40:08;24.34;49.71
73112;HTU21D;61301;51.956;5.876;2023-08-24T00:42:42;24.32;49.72
73112;HTU21D;61301;51.956;5.876;2023-08-24T00:45:09;24.28;49.74
73112;HTU21D;61301;51.956;5.876;2023-08-24T00:47:42;24.27;50.02
73112;HTU21D;61301;51.956;5.876;2023-08-24T00:50:08;24.21;50.15
73112;HTU21D;61301;51.956;5.876;2023-08-24T00:52:40;24.19;50.32
73112;HTU21D;61301;51.956;5.876;2023-08-24T00:55:07;24.13;51.26
73112;HTU21D;61301;51.956;5.876;2023-08-24T00:57:33;24.04;51.63
73112;HTU21D;61301;51.956;5.876;2023-08-24T01:00:03;23.96;51.86
73112;HTU21D;61301;51.956;5.876;2023-08-24T01:02:32;23.92;51.92
73112;HTU21D;61301;51.956;5.876;2023-08-24T01:05:01;23.95;51.79
73112;HTU21D;61301;51.956;5.876;2023-08-24T01:07:28;23.95;51.81
73112;HTU21D;61301;51.956;5.876;2023-08-24T01:09:55;23.94;51.72
73112;HTU21D;61301;51.956;5.876;2023-08-24T01:12:31;23.99;51.57
73112;HTU21D;61301;51.956;5.876;2023-08-24T01:15:12;24.02;51.85
73112;HTU21D;61301;51.956;5.876;2023-08-24T01:17:39;23.99;51.70
73112;HTU21D;61301;51.956;5.876;2023-08-24T01:20:10;24.00;51.44
73112;HTU21D;61301;51.956;5.876;2023-08-24T01:22:37;24.05;51.54
73112;HTU21D;61301;51.956;5.876;2023-08-24T01:25:12;24.09;52.20
73112;HTU21D;61301;51.956;5.876;2023-08-24T01:27:39;24.05;52.24
73112;HTU21D;61301;51.956;5.876;2023-08-24T01:30:07;24.09;52.00
73112;HTU21D;61301;51.956;5.876;2023-08-24T01:32:34;24.10;51.83
73112;HTU21D;61301;51.956;5.876;2023-08-24T01:35:04;24.10;52.04
73112;HTU21D;61301;51.956;5.876;2023-08-24T01:37:32;24.08;52.62
73112;HTU21D;61301;51.956;5.876;2023-08-24T01:40:05;24.06;52.64
73112;HTU21D;61301;51.956;5.876;2023-08-24T01:43:03;24.09;53.68
73112;HTU21D;61301;51.956;5.876;2023-08-24T01:45:31;23.92;53.70
73112;HTU21D;61301;51.956;5.876;2023-08-24T01:48:01;23.92;53.86
73112;HTU21D;61301;51.956;5.876;2023-08-24T01:50:31;23.89;53.85
73112;HTU21D;61301;51.956;5.876;2023-08-24T01:52:58;23.89;53.70
73112;HTU21D;61301;51.956;5.876;2023-08-24T01:55:25;23.88;53.72
73112;HTU21D;61301;51.956;5.876;2023-08-24T01:57:51;23.87;53.81
73112;HTU21D;61301;51.956;5.876;2023-08-24T02:00:17;23.89;53.56
73112;HTU21D;61301;51.956;5.876;2023-08-24T02:02:46;23.94;53.60
73112;HTU21D;61301;51.956;5.876;2023-08-24T02:05:12;23.90;53.67
73112;HTU21D;61301;51.956;5.876;2023-08-24T02:07:39;23.90;53.84
73112;HTU21D;61301;51.956;5.876;2023-08-24T02:10:08;23.87;54.01
73112;HTU21D;61301;51.956;5.876;2023-08-24T02:12:34;23.88;53.91
73112;HTU21D;61301;51.956;5.876;2023-08-24T02:15:00;23.90;53.97
73112;HTU21D;61301;51.956;5.876;2023-08-24T02:17:26;23.92;54.07
73112;HTU21D;61301;51.956;5.876;2023-08-24T02:19:53;23.98;53.88
73112;HTU21D;61301;51.956;5.876;2023-08-24T02:22:19;24.00;53.83
73112;HTU21D;61301;51.956;5.876;2023-08-24T02:24:45;24.02;53.80
73112;HTU21D;61301;51.956;5.876;2023-08-24T02:27:11;24.06;53.69
73112;HTU21D;61301;51.956;5.876;2023-08-24T02:29:37;24.00;53.81
73112;HTU21D;61301;51.956;5.876;2023-08-24T02:32:04;23.99;53.67
73112;HTU21D;61301;51.956;5.876;2023-08-24T02:34:31;24.01;53.71
73112;HTU21D;61301;51.956;5.876;2023-08-24T02:36:57;23.99;53.76
73112;HTU21D;61301;51.956;5.876;2023-08-24T02:39:23;24.06;53.65
73112;HTU21D;61301;51.956;5.876;2023-08-24T02:41:49;24.08;53.72
73112;HTU21D;61301;51.956;5.876;2023-08-24T02:44:15;24.01;54.17
73112;HTU21D;61301;51.956;5.876;2023-08-24T02:46:44;24.03;54.15
73112;HTU21D;61301;51.956;5.876;2023-08-24T02:49:10;24.01;54.25
73112;HTU21D;61301;51.956;5.876;2023-08-24T02:51:36;23.96;54.87
73112;HTU21D;61301;51.956;5.876;2023-08-24T02:54:02;23.90;55.36
73112;HTU21D;61301;51.956;5.876;2023-08-24T02:56:28;23.71;56.00
73112;HTU21D;61301;51.956;5.876;2023-08-24T02:58:54;23.67;55.83
73112;HTU21D;61301;51.956;5.876;2023-08-24T03:01:20;23.71;55.58
73112;HTU21D;61301;51.956;5.876;2023-08-24T03:03:46;23.77;55.55
73112;HTU21D;61301;51.956;5.876;2023-08-24T03:06:12;23.79;55.26
73112;HTU21D;61301;51.956;5.876;2023-08-24T03:08:39;23.77;55.27
73112;HTU21D;61301;51.956;5.876;2023-08-24T03:11:06;23.71;55.80
73112;HTU21D;61301;51.956;5.876;2023-08-24T03:13:36;23.68;55.78
73112;HTU21D;61301;51.956;5.876;2023-08-24T03:16:03;23.64;56.87
73112;HTU21D;61301;51.956;5.876;2023-08-24T03:18:30;23.54;57.32
73112;HTU21D;61301;51.956;5.876;2023-08-24T03:20:56;23.53;57.17
73112;HTU21D;61301;51.956;5.876;2023-08-24T03:23:22;23.50;56.95
73112;HTU21D;61301;51.956;5.876;2023-08-24T03:25:48;23.51;57.21
73112;HTU21D;61301;51.956;5.876;2023-08-24T03:28:14;23.44;57.10
73112;HTU21D;61301;51.956;5.876;2023-08-24T03:30:50;23.42;57.43
73112;HTU21D;61301;51.956;5.876;2023-08-24T03:33:16;23.36;57.22
73112;HTU21D;61301;51.956;5.876;2023-08-24T03:35:43;23.38;57.03
73112;HTU21D;61301;51.956;5.876;2023-08-24T03:38:09;23.38;56.90
73112;HTU21D;61301;51.956;5.876;2023-08-24T03:40:35;23.34;57.04
73112;HTU21D;61301;51.956;5.876;2023-08-24T03:43:02;23.28;57.11
73112;HTU21D;61301;51.956;5.876;2023-08-24T03:45:28;23.26;57.13
73112;HTU21D;61301;51.956;5.876;2023-08-24T03:47:54;23.25;57.11
73112;HTU21D;61301;51.956;5.876;2023-08-24T03:50:20;23.23;57.06
73112;HTU21D;61301;51.956;5.876;2023-08-24T03:52:49;23.24;57.35
73112;HTU21D;61301;51.956;5.876;2023-08-24T03:55:15;23.24;57.55
73112;HTU21D;61301;51.956;5.876;2023-08-24T03:57:43;23.23;57.87
73112;HTU21D;61301;51.956;5.876;2023-08-24T04:00:09;23.16;58.38
73112;HTU21D;61301;51.956;5.876;2023-08-24T04:02:41;23.06;58.78
73112;HTU21D;61301;51.956;5.876;2023-08-24T04:05:10;22.99;59.11
73112;HTU21D;61301;51.956;5.876;2023-08-24T04:07:39;22.95;58.99
73112;HTU21D;61301;51.956;5.876;2023-08-24T04:10:07;22.94;58.86
73112;HTU21D;61301;51.956;5.876;2023-08-24T04:12:33;22.96;58.56
73112;HTU21D;61301;51.956;5.876;2023-08-24T04:15:00;22.99;58.33
73112;HTU21D;61301;51.956;5.876;2023-08-24T04:17:26;22.99;58.61
73112;HTU21D;61301;51.956;5.876;2023-08-24T04:19:52;22.95;58.80
73112;HTU21D;61301;51.956;5.876;2023-08-24T04:22:19;22.93;58.67
73112;HTU21D;61301;51.956;5.876;2023-08-24T04:24:45;22.92;58.84
73112;HTU21D;61301;51.956;5.876;2023-08-24T04:27:11;22.94;58.74
73112;HTU21D;61301;51.956;5.876;2023-08-24T04:29:37;22.91;58.91
73112;HTU21D;61301;51.956;5.876;2023-08-24T04:32:03;22.84;58.98
73112;HTU21D;61301;51.956;5.876;2023-08-24T04:34:30;22.84;58.74
73112;HTU21D;61301;51.956;5.876;2023-08-24T04:36:56;22.85;58.67
73112;HTU21D;61301;51.956;5.876;2023-08-24T04:39:22;22.91;58.41
73112;HTU21D;61301;51.956;5.876;2023-08-24T04:41:48;22.95;58.29
73112;HTU21D;61301;51.956;5.876;2023-08-24T04:44:14;22.88;58.43
73112;HTU21D;61301;51.956;5.876;2023-08-24T04:46:40;22.92;58.22
73112;HTU21D;61301;51.956;5.876;2023-08-24T04:49:06;22.86;58.45
73112;HTU21D;61301;51.956;5.876;2023-08-24T04:51:32;22.84;58.46
73112;HTU21D;61301;51.956;5.876;2023-08-24T04:53:58;22.80;58.53
73112;HTU21D;61301;51.956;5.876;2023-08-24T04:56:24;22.81;58.40
73112;HTU21D;61301;51.956;5.876;2023-08-24T04:58:56;22.86;58.48
73112;HTU21D;61301;51.956;5.876;2023-08-24T05:01:23;22.82;58.60
73112;HTU21D;61301;51.956;5.876;2023-08-24T05:03:51;22.84;58.41
73112;HTU21D;61301;51.956;5.876;2023-08-24T05:06:21;22.84;58.47
73112;HTU21D;61301;51.956;5.876;2023-08-24T05:08:47;22.82;58.67
73112;HTU21D;61301;51.956;5.876;2023-08-24T05:11:26;22.86;58.78
73112;HTU21D;61301;51.956;5.876;2023-08-24T05:13:55;22.85;58.54
73112;HTU21D;61301;51.956;5.876;2023-08-24T05:16:22;22.91;58.60
73112;HTU21D;61301;51.956;5.876;2023-08-24T05:18:48;22.94;58.53
73112;HTU21D;61301;51.956;5.876;2023-08-24T05:21:14;23.00;58.30
73112;HTU21D;61301;51.956;5.876;2023-08-24T05:23:40;23.02;58.35
73112;HTU21D;61301;51.956;5.876;2023-08-24T05:26:06;23.02;58.29
73112;HTU21D;61301;51.956;5.876;2023-08-24T05:28:32;23.05;58.19
73112;HTU21D;61301;51.956;5.876;2023-08-24T05:30:58;23.07;58.09
73112;HTU21D;61301;51.956;5.876;2023-08-24T05:33:25;23.11;58.02
73112;HTU21D;61301;51.956;5.876;2023-08-24T05:35:54;23.14;58.13
73112;HTU21D;61301;51.956;5.876;2023-08-24T05:38:20;23.18;57.87
73112;HTU21D;61301;51.956;5.876;2023-08-24T05:40:49;23.26;57.88
73112;HTU21D;61301;51.956;5.876;2023-08-24T05:43:15;23.28;57.75
73112;HTU21D;61301;51.956;5.876;2023-08-24T05:45:41;23.31;57.65
73112;HTU21D;61301;51.956;5.876;2023-08-24T05:48:10;23.38;57.67
73112;HTU21D;61301;51.956;5.876;2023-08-24T05:50:41;23.38;57.82
73112;HTU21D;61301;51.956;5.876;2023-08-24T05:53:07;23.39;57.88
73112;HTU21D;61301;51.956;5.876;2023-08-24T05:55:33;23.39;57.97
73112;HTU21D;61301;51.956;5.876;2023-08-24T05:57:59;23.37;58.05
73112;HTU21D;61301;51.956;5.876;2023-08-24T06:00:25;23.40;58.15
73112;HTU21D;61301;51.956;5.876;2023-08-24T06:02:51;23.44;58.16
73112;HTU21D;61301;51.956;5.876;2023-08-24T06:05:17;23.42;58.16
73112;HTU21D;61301;51.956;5.876;2023-08-24T06:07:44;23.40;58.33
73112;HTU21D;61301;51.956;5.876;2023-08-24T06:10:11;23.42;58.27
73112;HTU21D;61301;51.956;5.876;2023-08-24T06:12:38;23.47;58.22
73112;HTU21D;61301;51.956;5.876;2023-08-24T06:15:05;23.52;58.20
73112;HTU21D;61301;51.956;5.876;2023-08-24T06:17:33;23.57;58.08
73112;HTU21D;61301;51.956;5.876;2023-08-24T06:20:04;23.64;58.10
73112;HTU21D;61301;51.956;5.876;2023-08-24T06:22:30;23.67;57.96
73112;HTU21D;61301;51.956;5.876;2023-08-24T06:24:56;23.68;57.98
73112;HTU21D;61301;51.956;5.876;2023-08-24T06:27:26;23.70;58.00
73112;HTU21D;61301;51.956;5.876;2023-08-24T06:29:52;23.67;58.02
73112;HTU21D;61301;51.956;5.876;2023-08-24T06:32:18;23.70;58.03
73112;HTU21D;61301;51.956;5.876;2023-08-24T06:34:44;23.66;58.21
73112;HTU21D;61301;51.956;5.876;2023-08-24T06:37:10;23.68;58.20
73112;HTU21D;61301;51.956;5.876;2023-08-24T06:39:36;23.76;58.00
73112;HTU21D;61301;51.956;5.876;2023-08-24T06:42:03;23.83;57.90
73112;HTU21D;61301;51.956;5.876;2023-08-24T06:44:30;23.89;57.87
73112;HTU21D;61301;51.956;5.876;2023-08-24T06:46:56;24.00;57.68
73112;HTU21D;61301;51.956;5.876;2023-08-24T06:49:22;24.13;57.47
73112;HTU21D;61301;51.956;5.876;2023-08-24T06:51:48;24.24;57.45
73112;HTU21D;61301;51.956;5.876;2023-08-24T06:54:14;24.34;56.89
73112;HTU21D;61301;51.956;5.876;2023-08-24T06:56:43;24.40;56.56
73112;HTU21D;61301;51.956;5.876;2023-08-24T06:59:09;24.46;56.44
73112;HTU21D;61301;51.956;5.876;2023-08-24T07:01:36;24.47;56.45
73112;HTU21D;61301;51.956;5.876;2023-08-24T07:04:02;24.60;56.32
73112;HTU21D;61301;51.956;5.876;2023-08-24T07:06:29;24.73;55.89
73112;HTU21D;61301;51.956;5.876;2023-08-24T07:08:54;24.70;55.54
73112;HTU21D;61301;51.956;5.876;2023-08-24T07:11:20;24.83;55.56
73112;HTU21D;61301;51.956;5.876;2023-08-24T07:13:46;24.97;55.33
73112;HTU21D;61301;51.956;5.876;2023-08-24T07:16:14;25.09;55.01
73112;HTU21D;61301;51.956;5.876;2023-08-24T07:18:40;25.20;54.78
73112;HTU21D;61301;51.956;5.876;2023-08-24T07:21:06;25.27;54.56
73112;HTU21D;61301;51.956;5.876;2023-08-24T07:23:32;25.35;54.53
73112;HTU21D;61301;51.956;5.876;2023-08-24T07:25:58;25.44;54.52
73112;HTU21D;61301;51.956;5.876;2023-08-24T07:28:24;25.54;53.81
73112;HTU21D;61301;51.956;5.876;2023-08-24T07:30:50;25.69;53.72
73112;HTU21D;61301;51.956;5.876;2023-08-24T07:33:19;25.81;53.19
73112;HTU21D;61301;51.956;5.876;2023-08-24T07:35:47;25.82;52.82
73112;HTU21D;61301;51.956;5.876;2023-08-24T07:38:13;25.99;52.78
73112;HTU21D;61301;51.956;5.876;2023-08-24T07:40:39;26.02;52.00
73112;HTU21D;61301;51.956;5.876;2023-08-24T07:43:05;26.13;52.27
73112;HTU21D;61301;51.956;5.876;2023-08-24T07:45:31;26.26;51.97
73112;HTU21D;61301;51.956;5.876;2023-08-24T07:47:57;26.35;51.46
73112;HTU21D;61301;51.956;5.876;2023-08-24T07:50:23;26.45;51.59
73112;HTU21D;61301;51.956;5.876;2023-08-24T07:52:49;26.57;51.04
73112;HTU21D;61301;51.956;5.876;2023-08-24T07:55:15;26.58;50.30
73112;HTU21D;61301;51.956;5.876;2023-08-24T07:57:42;26.58;50.53
73112;HTU21D;61301;51.956;5.876;2023-08-24T08:00:08;26.75;50.79
73112;HTU21D;61301;51.956;5.876;2023-08-24T08:02:41;26.98;50.40
73112;HTU21D;61301;51.956;5.876;2023-08-24T08:05:07;27.11;50.05
73112;HTU21D;61301;51.956;5.876;2023-08-24T08:07:34;27.24;49.96
73112;HTU21D;61301;51.956;5.876;2023-08-24T08:10:00;27.31;49.30
73112;HTU21D;61301;51.956;5.876;2023-08-24T08:12:26;27.27;49.54
73112;HTU21D;61301;51.956;5.876;2023-08-24T08:14:52;27.32;49.18
73112;HTU21D;61301;51.956;5.876;2023-08-24T08:17:18;27.39;49.63
73112;HTU21D;61301;51.956;5.876;2023-08-24T08:19:44;27.61;49.05
73112;HTU21D;61301;51.956;5.876;2023-08-24T08:22:12;27.73;48.08
73112;HTU21D;61301;51.956;5.876;2023-08-24T08:24:38;27.81;48.46
73112;HTU21D;61301;51.956;5.876;2023-08-24T08:27:04;27.95;48.44
73112;HTU21D;61301;51.956;5.876;2023-08-24T08:29:30;28.08;48.05
73112;HTU21D;61301;51.956;5.876;2023-08-24T08:31:56;28.06;47.55
73112;HTU21D;61301;51.956;5.876;2023-08-24T08:34:22;28.18;47.99
73112;HTU21D;61301;51.956;5.876;2023-08-24T08:36:48;28.25;48.21
73112;HTU21D;61301;51.956;5.876;2023-08-24T08:39:14;28.32;47.47
73112;HTU21D;61301;51.956;5.876;2023-08-24T08:41:42;28.41;47.86
73112;HTU21D;61301;51.956;5.876;2023-08-24T08:44:12;28.49;47.72
73112;HTU21D;61301;51.956;5.876;2023-08-24T08:46:40;28.53;47.54
73112;HTU21D;61301;51.956;5.876;2023-08-24T08:49:07;28.59;47.20
73112;HTU21D;61301;51.956;5.876;2023-08-24T08:51:36;28.56;46.38
73112;HTU21D;61301;51.956;5.876;2023-08-24T08:54:03;28.39;47.37
73112;HTU21D;61301;51.956;5.876;2023-08-24T08:56:33;28.33;46.94
73112;HTU21D;61301;51.956;5.876;2023-08-24T08:59:00;28.42;47.56
73112;HTU21D;61301;51.956;5.876;2023-08-24T09:01:28;28.49;47.08
73112;HTU21D;61301;51.956;5.876;2023-08-24T09:03:54;28.70;46.78
73112;HTU21D;61301;51.956;5.876;2023-08-24T09:06:21;28.97;46.45
73112;HTU21D;61301;51.956;5.876;2023-08-24T09:08:49;29.16;45.91
73112;HTU21D;61301;51.956;5.876;2023-08-24T09:11:15;29.33;45.46
73112;HTU21D;61301;51.956;5.876;2023-08-24T09:13:43;29.45;44.77
73112;HTU21D;61301;51.956;5.876;2023-08-24T09:16:10;29.56;44.73
73112;HTU21D;61301;51.956;5.876;2023-08-24T09:18:45;29.68;44.42
73112;HTU21D;61301;51.956;5.876;2023-08-24T09:21:14;29.82;44.21
73112;HTU21D;61301;51.956;5.876;2023-08-24T09:23:54;29.86;43.95
73112;HTU21D;61301;51.956;5.876;2023-08-24T09:26:36;29.77;43.82
73112;HTU21D;61301;51.956;5.876;2023-08-24T09:29:15;29.82;43.49
73112;HTU21D;61301;51.956;5.876;2023-08-24T09:31:42;29.85;44.30
73112;HTU21D;61301;51.956;5.876;2023-08-24T09:34:11;29.96;44.07
73112;HTU21D;61301;51.956;5.876;2023-08-24T09:36:38;29.97;44.06
73112;HTU21D;61301;51.956;5.876;2023-08-24T09:39:05;30.18;43.39
73112;HTU21D;61301;51.956;5.876;2023-08-24T09:44:05;30.24;43.91
73112;HTU21D;61301;51.956;5.876;2023-08-24T09:46:31;30.36;43.72
73112;HTU21D;61301;51.956;5.876;2023-08-24T09:48:57;30.56;43.33
73112;HTU21D;61301;51.956;5.876;2023-08-24T09:51:26;30.75;42.61
73112;HTU21D;61301;51.956;5.876;2023-08-24T09:53:57;30.83;41.88
73112;HTU21D;61301;51.956;5.876;2023-08-24T09:56:28;30.96;41.97
73112;HTU21D;61301;51.956;5.876;2023-08-24T09:58:57;31.04;41.42
73112;HTU21D;61301;51.956;5.876;2023-08-24T10:01:26;30.97;41.13
73112;HTU21D;61301;51.956;5.876;2023-08-24T10:03:53;30.81;41.89
73112;HTU21D;61301;51.956;5.876;2023-08-24T10:06:20;30.68;42.09
73112;HTU21D;61301;51.956;5.876;2023-08-24T10:08:52;30.62;42.11
73112;HTU21D;61301;51.956;5.876;2023-08-24T10:11:23;30.34;42.24
73112;HTU21D;61301;51.956;5.876;2023-08-24T10:14:00;30.42;42.25
73112;HTU21D;61301;51.956;5.876;2023-08-24T10:16:27;30.50;42.58
73112;HTU21D;61301;51.956;5.876;2023-08-24T10:18:54;30.54;42.46
73112;HTU21D;61301;51.956;5.876;2023-08-24T10:21:23;30.57;42.56
73112;HTU21D;61301;51.956;5.876;2023-08-24T10:23:52;30.41;42.50
73112;HTU21D;61301;51.956;5.876;2023-08-24T10:26:19;30.25;43.29
73112;HTU21D;61301;51.956;5.876;2023-08-24T10:28:47;30.11;43.75
73112;HTU21D;61301;51.956;5.876;2023-08-24T10:31:13;30.16;43.90
73112;HTU21D;61301;51.956;5.876;2023-08-24T10:33:40;30.18;43.97
73112;HTU21D;61301;51.956;5.876;2023-08-24T10:36:07;30.20;43.94
73112;HTU21D;61301;51.956;5.876;2023-08-24T10:38:35;30.21;43.73
73112;HTU21D;61301;51.956;5.876;2023-08-24T10:41:06;30.22;43.59
73112;HTU21D;61301;51.956;5.876;2023-08-24T10:43:37;30.09;43.77
73112;HTU21D;61301;51.956;5.876;2023-08-24T10:46:04;30.01;44.33
73112;HTU21D;61301;51.956;5.876;2023-08-24T10:51:23;29.77;44.67
73112;HTU21D;61301;51.956;5.876;2023-08-24T10:53:53;29.65;44.97
73112;HTU21D;61301;51.956;5.876;2023-08-24T10:56:20;29.59;45.45
73112;HTU21D;61301;51.956;5.876;2023-08-24T10:58:47;29.51;45.70
73112;HTU21D;61301;51.956;5.876;2023-08-24T11:01:17;29.49;46.09
73112;HTU21D;61301;51.956;5.876;2023-08-24T11:03:51;29.51;45.91
73112;HTU21D;61301;51.956;5.876;2023-08-24T11:06:25;29.49;46.01
73112;HTU21D;61301;51.956;5.876;2023-08-24T11:09:08;29.52;46.04
73112;HTU21D;61301;51.956;5.876;2023-08-24T11:11:40;29.46;46.22
73112;HTU21D;61301;51.956;5.876;2023-08-24T11:14:13;29.59;46.57
73112;HTU21D;61301;51.956;5.876;2023-08-24T11:16:45;29.58;46.64
73112;HTU21D;61301;51.956;5.876;2023-08-24T11:19:11;29.61;46.82
73112;HTU21D;61301;51.956;5.876;2023-08-24T11:21:43;29.56;47.09
73112;HTU21D;61301;51.956;5.876;2023-08-24T11:24:09;29.58;46.95
73112;HTU21D;61301;51.956;5.876;2023-08-24T11:26:42;29.59;45.46
73112;HTU21D;61301;51.956;5.876;2023-08-24T11:29:09;29.59;45.77
73112;HTU21D;61301;51.956;5.876;2023-08-24T11:31:36;29.61;45.38
73112;HTU21D;61301;51.956;5.876;2023-08-24T11:34:02;29.53;45.25
73112;HTU21D;61301;51.956;5.876;2023-08-24T11:36:31;29.57;45.42
73112;HTU21D;61301;51.956;5.876;2023-08-24T11:38:58;29.59;45.35
73112;HTU21D;61301;51.956;5.876;2023-08-24T11:41:25;29.61;45.56
73112;HTU21D;61301;51.956;5.876;2023-08-24T11:43:59;29.70;45.40
73112;HTU21D;61301;51.956;5.876;2023-08-24T11:46:28;29.77;45.41
73112;HTU21D;61301;51.956;5.876;2023-08-24T11:48:55;29.74;45.21
73112;HTU21D;61301;51.956;5.876;2023-08-24T11:51:21;29.77;45.03
73112;HTU21D;61301;51.956;5.876;2023-08-24T11:53:47;29.79;45.28
73112;HTU21D;61301;51.956;5.876;2023-08-24T11:56:13;29.88;45.31
73112;HTU21D;61301;51.956;5.876;2023-08-24T11:58:40;29.93;45.19
73112;HTU21D;61301;51.956;5.876;2023-08-24T12:01:11;30.04;45.06
73112;HTU21D;61301;51.956;5.876;2023-08-24T12:03:40;30.08;44.64
73112;HTU21D;61301;51.956;5.876;2023-08-24T12:06:26;30.31;44.48
73112;HTU21D;61301;51.956;5.876;2023-08-24T12:08:54;30.06;44.85
73112;HTU21D;61301;51.956;5.876;2023-08-24T12:11:21;29.97;45.29
73112;HTU21D;61301;51.956;5.876;2023-08-24T12:13:52;29.98;45.51
73112;HTU21D;61301;51.956;5.876;2023-08-24T12:16:20;29.98;45.30
73112;HTU21D;61301;51.956;5.876;2023-08-24T12:21:17;30.12;45.24
73112;HTU21D;61301;51.956;5.876;2023-08-24T12:24:01;30.23;45.10
73112;HTU21D;61301;51.956;5.876;2023-08-24T12:26:32;30.26;45.15
73112;HTU21D;61301;51.956;5.876;2023-08-24T12:29:04;30.39;44.99
73112;HTU21D;61301;51.956;5.876;2023-08-24T12:31:31;30.37;45.11
73112;HTU21D;61301;51.956;5.876;2023-08-24T12:34:05;30.44;45.18
73112;HTU21D;61301;51.956;5.876;2023-08-24T12:36:32;30.35;45.51
73112;HTU21D;61301;51.956;5.876;2023-08-24T12:38:59;30.34;45.68
73112;HTU21D;61301;51.956;5.876;2023-08-24T12:41:25;30.25;45.90
73112;HTU21D;61301;51.956;5.876;2023-08-24T12:43:51;30.24;45.96
73112;HTU21D;61301;51.956;5.876;2023-08-24T12:46:18;30.27;45.96
73112;HTU21D;61301;51.956;5.876;2023-08-24T12:48:44;30.30;45.99
73112;HTU21D;61301;51.956;5.876;2023-08-24T12:51:10;30.34;45.98
73112;HTU21D;61301;51.956;5.876;2023-08-24T12:53:36;30.39;46.07
73112;HTU21D;61301;51.956;5.876;2023-08-24T12:56:02;30.41;46.50
73112;HTU21D;61301;51.956;5.876;2023-08-24T12:58:29;30.46;46.97
73112;HTU21D;61301;51.956;5.876;2023-08-24T13:00:55;30.47;47.33
73112;HTU21D;61301;51.956;5.876;2023-08-24T13:03:21;30.46;47.77
73112;HTU21D;61301;51.956;5.876;2023-08-24T13:05:47;30.47;47.85
73112;HTU21D;61301;51.956;5.876;2023-08-24T13:08:13;30.47;47.88
73112;HTU21D;61301;51.956;5.876;2023-08-24T13:10:40;30.51;47.42
73112;HTU21D;61301;51.956;5.876;2023-08-24T13:13:06;30.57;47.18
73112;HTU21D;61301;51.956;5.876;2023-08-24T13:15:31;30.49;46.67
73112;HTU21D;61301;51.956;5.876;2023-08-24T13:17:58;30.49;46.41
73112;HTU21D;61301;51.956;5.876;2023-08-24T13:20:24;30.55;47.06
73112;HTU21D;61301;51.956;5.876;2023-08-24T13:22:52;30.64;46.96
73112;HTU21D;61301;51.956;5.876;2023-08-24T13:25:18;30.64;46.12
73112;HTU21D;61301;51.956;5.876;2023-08-24T13:27:45;30.71;45.74
73112;HTU21D;61301;51.956;5.876;2023-08-24T13:30:11;30.74;45.77
73112;HTU21D;61301;51.956;5.876;2023-08-24T13:32:38;30.72;44.89
73112;HTU21D;61301;51.956;5.876;2023-08-24T13:35:05;30.69;45.08
73112;HTU21D;61301;51.956;5.876;2023-08-24T13:37:31;30.68;45.51
73112;HTU21D;61301;51.956;5.876;2023-08-24T13:39:58;30.77;46.02
73112;HTU21D;61301;51.956;5.876;2023-08-24T13:42:24;30.89;46.59
73112;HTU21D;61301;51.956;5.876;2023-08-24T13:44:50;30.99;46.24
73112;HTU21D;61301;51.956;5.876;2023-08-24T13:47:16;31.04;46.11
73112;HTU21D;61301;51.956;5.876;2023-08-24T13:49:42;30.98;46.07
73112;HTU21D;61301;51.956;5.876;2023-08-24T13:52:08;30.91;46.00
73112;HTU21D;61301;51.956;5.876;2023-08-24T13:54:34;30.81;45.89
73112;HTU21D;61301;51.956;5.876;2023-08-24T13:57:01;30.76;45.68
73112;HTU21D;61301;51.956;5.876;2023-08-24T13:59:27;30.74;45.60
73112;HTU21D;61301;51.956;5.876;2023-08-24T14:01:53;30.63;45.80
73112;HTU21D;61301;51.956;5.876;2023-08-24T14:04:19;30.67;45.69
73112;HTU21D;61301;51.956;5.876;2023-08-24T14:06:45;30.69;45.74
73112;HTU21D;61301;51.956;5.876;2023-08-24T14:09:13;30.66;45.66
73112;HTU21D;61301;51.956;5.876;2023-08-24T14:11:39;30.52;45.79
73112;HTU21D;61301;51.956;5.876;2023-08-24T14:14:05;30.41;45.93
73112;HTU21D;61301;51.956;5.876;2023-08-24T14:16:31;30.40;46.27
73112;HTU21D;61301;51.956;5.876;2023-08-24T14:18:57;30.39;46.37
73112;HTU21D;61301;51.956;5.876;2023-08-24T14:21:23;30.40;46.49
73112;HTU21D;61301;51.956;5.876;2023-08-24T14:23:49;30.34;46.77
73112;HTU21D;61301;51.956;5.876;2023-08-24T14:26:24;30.35;46.61
73112;HTU21D;61301;51.956;5.876;2023-08-24T14:28:57;30.15;47.04
73112;HTU21D;61301;51.956;5.876;2023-08-24T14:31:25;30.12;47.17
73112;HTU21D;61301;51.956;5.876;2023-08-24T14:33:51;30.02;47.28
73112;HTU21D;61301;51.956;5.876;2023-08-24T14:36:18;29.97;47.39
73112;HTU21D;61301;51.956;5.876;2023-08-24T14:38:44;29.98;47.48
73112;HTU21D;61301;51.956;5.876;2023-08-24T14:41:12;29.89;47.60
73112;HTU21D;61301;51.956;5.876;2023-08-24T14:43:38;30.02;47.66
73112;HTU21D;61301;51.956;5.876;2023-08-24T14:46:05;30.01;47.83
73112;HTU21D;61301;51.956;5.876;2023-08-24T14:48:32;29.91;47.78
73112;HTU21D;61301;51.956;5.876;2023-08-24T14:50:58;30.00;47.68
73112;HTU21D;61301;51.956;5.876;2023-08-24T14:53:25;30.04;47.70
73112;HTU21D;61301;51.956;5.876;2023-08-24T14:55:52;30.05;47.68
73112;HTU21D;61301;51.956;5.876;2023-08-24T14:58:20;29.97;47.96
73112;HTU21D;61301;51.956;5.876;2023-08-24T15:00:47;30.07;47.62
73112;HTU21D;61301;51.956;5.876;2023-08-24T15:03:13;30.10;47.67
73112;HTU21D;61301;51.956;5.876;2023-08-24T15:05:56;30.11;47.73
73112;HTU21D;61301;51.956;5.876;2023-08-24T15:08:22;30.13;47.63
73112;HTU21D;61301;51.956;5.876;2023-08-24T15:10:54;30.22;47.66
73112;HTU21D;61301;51.956;5.876;2023-08-24T15:13:21;30.22;47.62
73112;HTU21D;61301;51.956;5.876;2023-08-24T15:15:47;30.19;47.55
73112;HTU21D;61301;51.956;5.876;2023-08-24T15:18:13;30.19;47.67
73112;HTU21D;61301;51.956;5.876;2023-08-24T15:20:39;30.11;47.50
73112;HTU21D;61301;51.956;5.876;2023-08-24T15:23:05;29.98;47.48
73112;HTU21D;61301;51.956;5.876;2023-08-24T15:25:33;29.87;47.50